Winchester, Kentucky
Current Conditions -  °F | °C
As of 10:15 AM on Monday 24 Nov 2014 (Local Time) from KIOB Reporting Station
Broken Clouds Broken Clouds  
Wind Chill: 63°   Ceiling: 4900
Heat Index: 63°   Visibility: 10mi
Dew Point: 50°   Wind: 23mph
Humidity: 63%   Direction: 250°WSW
Pressure: 29.52"   Gusts: 37mph
Location:  37.99°N, 84.18°W
Report Text: KIOB 241515Z AUTO 25020G32KT 10SM SCT045 BKN049 17/10 A2952 RMK AO2
Loading
Personal Weather Stations






























Interactive Weather Map New forecast layout! Learn more

10-Day Weather Forecast

Advertisements
Track Severe Weather on mobile